createdAt,value
2023-02-12T00:01:41.272Z,3.66
2023-02-12T00:04:09.590Z,3.62
2023-02-12T00:06:40.125Z,3.60
2023-02-12T00:09:08.345Z,3.60
2023-02-12T00:11:38.014Z,3.62
2023-02-12T00:14:06.447Z,3.66
2023-02-12T00:16:38.671Z,3.68
2023-02-12T00:19:09.573Z,3.70
2023-02-12T00:21:38.362Z,3.73
2023-02-12T00:24:06.892Z,3.75
2023-02-12T00:26:35.861Z,3.74
2023-02-12T00:29:04.332Z,3.74
2023-02-12T00:31:33.198Z,3.74
2023-02-12T00:34:01.482Z,3.72
2023-02-12T00:36:30.789Z,3.73
2023-02-12T00:38:59.595Z,3.75
2023-02-12T00:41:28.108Z,3.78
2023-02-12T00:43:56.928Z,3.80
2023-02-12T00:46:25.580Z,3.79
2023-02-12T00:48:55.374Z,3.79
2023-02-12T00:51:23.977Z,3.80
2023-02-12T00:53:53.172Z,3.81
2023-02-12T00:56:21.389Z,3.82
2023-02-12T00:58:50.978Z,3.81
2023-02-12T01:01:19.324Z,3.81
2023-02-12T01:03:48.283Z,3.83
2023-02-12T01:06:16.578Z,3.84
2023-02-12T01:08:44.954Z,3.85
2023-02-12T01:11:13.985Z,3.87
2023-02-12T01:13:44.500Z,3.88
2023-02-12T01:16:21.075Z,3.88
2023-02-12T01:18:53.122Z,3.92
2023-02-12T01:21:25.865Z,3.95
2023-02-12T01:23:54.220Z,3.98
2023-02-12T01:26:22.667Z,4.02
2023-02-12T01:28:54.025Z,4.13
2023-02-12T01:31:24.165Z,4.26
2023-02-12T01:33:54.732Z,4.31
2023-02-12T01:36:23.227Z,4.34
2023-02-12T01:38:51.834Z,4.36
2023-02-12T01:41:24.672Z,4.40
2023-02-12T01:44:26.307Z,4.35
2023-02-12T01:47:00.849Z,4.27
2023-02-12T01:49:34.033Z,4.24
2023-02-12T01:52:07.177Z,4.19
2023-02-12T01:54:36.177Z,4.15
2023-02-12T01:57:05.523Z,4.12
2023-02-12T01:59:35.707Z,4.12
2023-02-12T02:02:05.562Z,4.11
2023-02-12T02:04:42.420Z,4.09
2023-02-12T02:07:12.778Z,4.07
2023-02-12T02:09:41.731Z,4.04
2023-02-12T02:12:28.867Z,4.00
2023-02-12T02:15:00.181Z,3.99
2023-02-12T02:17:53.840Z,3.98
2023-02-12T02:20:47.430Z,3.98
2023-02-12T02:23:57.436Z,3.96
2023-02-12T02:26:41.006Z,3.96
2023-02-12T02:29:27.671Z,3.94
2023-02-12T02:32:25.982Z,3.92
2023-02-12T02:35:02.197Z,3.80
2023-02-12T02:37:39.669Z,3.71
2023-02-12T02:40:21.201Z,3.60
2023-02-12T02:42:52.628Z,3.51
2023-02-12T02:45:36.765Z,3.45
2023-02-12T02:48:08.316Z,3.41
2023-02-12T02:50:38.589Z,3.40
2023-02-12T02:53:10.452Z,3.40
2023-02-12T02:55:42.816Z,3.41
2023-02-12T02:58:14.965Z,3.36
2023-02-12T03:00:47.538Z,3.33
2023-02-12T03:03:16.144Z,3.29
2023-02-12T03:05:47.486Z,3.21
2023-02-12T03:08:24.428Z,3.14
2023-02-12T03:11:01.214Z,3.04
2023-02-12T03:13:36.931Z,2.95
2023-02-12T03:16:10.014Z,2.89
2023-02-12T03:18:44.480Z,2.81
2023-02-12T03:21:15.273Z,2.76
2023-02-12T03:23:54.791Z,2.72
2023-02-12T03:26:26.172Z,2.67
2023-02-12T03:28:54.848Z,2.64
2023-02-12T03:31:26.161Z,2.62
2023-02-12T03:34:16.693Z,2.60
2023-02-12T03:37:05.405Z,2.61
2023-02-12T03:39:50.178Z,2.62
2023-02-12T03:42:42.054Z,2.63
2023-02-12T03:45:22.914Z,2.64
2023-02-12T03:48:09.313Z,2.64
2023-02-12T03:50:46.873Z,2.66
2023-02-12T03:53:15.948Z,2.69
2023-02-12T03:55:45.911Z,2.68
2023-02-12T03:58:17.859Z,2.66
2023-02-12T04:00:46.206Z,2.64
2023-02-12T04:03:14.724Z,2.60
2023-02-12T04:05:43.212Z,2.54
2023-02-12T04:08:11.919Z,2.51
2023-02-12T04:10:47.370Z,2.49
2023-02-12T04:13:21.876Z,2.45
2023-02-12T04:15:58.511Z,2.40
2023-02-12T04:18:40.866Z,2.35
2023-02-12T04:21:39.702Z,2.28
2023-02-12T04:24:39.765Z,2.19
2023-02-12T04:27:26.758Z,2.14
2023-02-12T04:29:59.337Z,2.08
2023-02-12T04:32:40.243Z,2.04
2023-02-12T04:35:28.339Z,2.00
2023-02-12T04:38:10.433Z,1.94
2023-02-12T04:40:39.697Z,1.93
2023-02-12T04:43:08.402Z,1.93
2023-02-12T04:45:37.193Z,1.92
2023-02-12T04:48:05.990Z,1.89
2023-02-12T04:50:42.756Z,1.83
2023-02-12T04:53:11.027Z,1.81
2023-02-12T04:55:39.863Z,1.76
2023-02-12T04:58:08.209Z,1.72
2023-02-12T05:00:37.085Z,1.69
2023-02-12T05:03:05.582Z,1.61
2023-02-12T05:05:35.682Z,1.51
2023-02-12T05:08:03.999Z,1.46
2023-02-12T05:10:32.695Z,1.39
2023-02-12T05:13:07.040Z,1.37
2023-02-12T05:15:39.810Z,1.37
2023-02-12T05:18:08.161Z,1.24
2023-02-12T05:20:37.707Z,1.18
2023-02-12T05:23:06.389Z,1.19
2023-02-12T05:25:35.130Z,1.11
2023-02-12T05:28:03.448Z,1.06
2023-02-12T05:30:31.897Z,1.05
2023-02-12T05:33:00.605Z,1.00
2023-02-12T05:35:28.769Z,0.96
2023-02-12T05:37:57.312Z,0.92
2023-02-12T05:40:25.864Z,0.90
2023-02-12T05:42:54.382Z,0.99
2023-02-12T05:45:28.099Z,1.06
2023-02-12T05:47:57.081Z,1.07
2023-02-12T05:50:25.428Z,1.07
2023-02-12T05:53:01.633Z,1.10
2023-02-12T05:55:30.279Z,1.12
2023-02-12T05:57:59.060Z,1.17
2023-02-12T06:00:27.637Z,1.25
2023-02-12T06:02:56.392Z,1.32
2023-02-12T06:05:24.723Z,1.42
2023-02-12T06:07:53.362Z,1.48
2023-02-12T06:10:21.591Z,1.58
2023-02-12T06:12:54.615Z,1.66
2023-02-12T06:15:23.118Z,1.74
2023-02-12T06:17:51.802Z,1.83
2023-02-12T06:20:20.659Z,1.90
2023-02-12T06:22:49.187Z,1.94
2023-02-12T06:25:17.528Z,1.94
2023-02-12T06:27:46.664Z,1.88
2023-02-12T06:30:15.678Z,1.92
2023-02-12T06:32:44.560Z,1.99
2023-02-12T06:35:12.828Z,2.07
2023-02-12T06:37:41.326Z,2.12
2023-02-12T06:40:10.041Z,2.15
2023-02-12T06:42:38.259Z,2.15
2023-02-12T06:45:07.117Z,2.11
2023-02-12T06:47:35.346Z,2.04
2023-02-12T06:50:03.806Z,1.95
2023-02-12T06:52:32.277Z,1.78
2023-02-12T06:55:00.861Z,1.63
2023-02-12T06:57:30.140Z,1.59
2023-02-12T07:00:00.625Z,1.56
2023-02-12T07:02:29.026Z,1.37
2023-02-12T07:04:57.469Z,1.32
2023-02-12T07:07:25.759Z,1.29
2023-02-12T07:09:53.996Z,1.32
2023-02-12T07:12:27.658Z,1.38
2023-02-12T07:14:56.412Z,1.44
2023-02-12T07:17:25.116Z,1.51
2023-02-12T07:19:53.762Z,1.57
2023-02-12T07:22:22.407Z,1.76
2023-02-12T07:24:50.695Z,1.76
2023-02-12T07:27:19.158Z,1.79
2023-02-12T07:29:47.667Z,1.83
2023-02-12T07:32:16.283Z,1.92
2023-02-12T07:34:44.988Z,2.00
2023-02-12T07:37:13.798Z,2.06
2023-02-12T07:39:43.406Z,2.10
2023-02-12T07:42:15.372Z,2.10
2023-02-12T07:44:46.726Z,2.10
2023-02-12T07:47:18.395Z,2.12
2023-02-12T07:49:47.302Z,2.18
2023-02-12T07:52:16.466Z,2.21
2023-02-12T07:54:46.096Z,2.19
2023-02-12T07:57:14.451Z,2.15
2023-02-12T07:59:43.181Z,2.16
2023-02-12T08:02:11.788Z,2.19
2023-02-12T08:04:41.751Z,2.20
2023-02-12T08:07:09.994Z,2.18
2023-02-12T08:09:39.111Z,2.17
2023-02-12T08:12:07.720Z,2.21
2023-02-12T08:28:03.053Z,2.33
2023-02-12T08:30:32.329Z,2.58
2023-02-12T08:33:02.075Z,2.53
2023-02-12T08:35:30.534Z,2.51
2023-02-12T08:37:59.598Z,2.51
2023-02-12T08:40:27.911Z,2.54
2023-02-12T08:42:56.634Z,2.56
2023-02-12T08:45:24.906Z,2.60
2023-02-12T08:47:53.846Z,2.68
2023-02-12T08:50:22.095Z,2.75
2023-02-12T08:52:50.419Z,2.84
2023-02-12T08:55:21.451Z,2.88
2023-02-12T08:57:50.085Z,2.89
2023-02-12T09:00:19.435Z,2.91
2023-02-12T09:02:48.842Z,2.92
2023-02-12T09:05:17.352Z,2.95
2023-02-12T09:07:47.147Z,2.97
2023-02-12T09:10:15.905Z,2.98
2023-02-12T09:12:44.997Z,3.09
2023-02-12T09:15:13.550Z,3.09
2023-02-12T09:17:43.944Z,3.02
2023-02-12T09:20:12.856Z,2.96
2023-02-12T09:22:41.137Z,3.00
2023-02-12T09:25:10.889Z,3.09
2023-02-12T09:27:39.146Z,3.18
2023-02-12T09:30:09.133Z,3.18
2023-02-12T09:32:37.376Z,3.14
2023-02-12T09:35:07.613Z,3.21
2023-02-12T09:37:44.785Z,3.30
2023-02-12T09:40:36.240Z,3.36
2023-02-12T09:43:10.903Z,3.40
2023-02-12T09:46:04.404Z,3.37
2023-02-12T09:48:54.253Z,3.33
2023-02-12T09:51:22.830Z,3.31
2023-02-12T09:53:51.390Z,3.32
2023-02-12T09:56:21.545Z,3.31
2023-02-12T09:59:00.924Z,3.25
2023-02-12T10:01:29.800Z,3.24
2023-02-12T10:04:02.219Z,3.25
2023-02-12T10:06:37.558Z,3.29
2023-02-12T10:09:07.139Z,3.32
2023-02-12T10:11:56.787Z,3.32
2023-02-12T10:14:46.218Z,3.33
2023-02-12T10:17:34.243Z,3.33
2023-02-12T10:20:16.376Z,3.37
2023-02-12T10:22:57.196Z,3.42
2023-02-12T10:25:30.822Z,3.45
2023-02-12T10:39:27.749Z,3.63
2023-02-12T10:42:12.171Z,3.95
2023-02-12T10:44:41.257Z,3.97
2023-02-12T10:47:22.999Z,4.05
2023-02-12T10:49:56.695Z,4.11
2023-02-12T10:52:30.992Z,4.16
2023-02-12T10:54:59.300Z,4.19
2023-02-12T10:57:29.985Z,4.24
2023-02-12T11:00:26.372Z,4.31
2023-02-12T11:03:02.115Z,4.38
2023-02-12T11:05:31.518Z,4.39
2023-02-12T11:07:59.789Z,4.40
2023-02-12T11:10:28.816Z,4.40
2023-02-12T11:12:59.020Z,4.35
2023-02-12T11:15:31.599Z,4.31
2023-02-12T11:18:04.424Z,4.28
2023-02-12T11:20:42.013Z,4.25
2023-02-12T11:36:59.567Z,4.34
2023-02-12T11:39:29.025Z,4.70
2023-02-12T11:41:59.961Z,4.69
2023-02-12T11:44:36.499Z,4.71
2023-02-12T11:59:42.643Z,4.78
2023-02-12T12:02:25.409Z,4.87
2023-02-12T12:04:54.758Z,4.74
2023-02-12T12:07:28.103Z,4.66
2023-02-12T12:10:15.253Z,4.63
2023-02-12T12:12:48.191Z,4.62
2023-02-12T12:15:44.152Z,4.60
2023-02-12T12:18:44.094Z,4.63
2023-02-12T12:21:31.714Z,4.69
2023-02-12T12:24:03.990Z,4.72
2023-02-12T12:26:33.978Z,4.69
2023-02-12T12:29:06.244Z,4.68
2023-02-12T12:31:37.496Z,4.67
2023-02-12T12:34:16.636Z,4.64
2023-02-12T12:36:51.887Z,4.62
2023-02-12T12:39:42.231Z,4.64
2023-02-12T12:42:31.292Z,4.65
2023-02-12T12:45:09.308Z,4.65
2023-02-12T12:47:58.105Z,4.64
2023-02-12T12:50:50.201Z,4.61
2023-02-12T12:53:23.176Z,4.61
2023-02-12T12:56:25.949Z,4.61
2023-02-12T12:59:30.845Z,4.62
2023-02-12T13:02:29.154Z,4.64
2023-02-12T13:05:20.426Z,4.67
2023-02-12T13:08:18.025Z,4.67
2023-02-12T13:10:57.811Z,4.64
2023-02-12T13:13:31.574Z,4.64
2023-02-12T13:16:29.715Z,4.60
2023-02-12T13:31:53.582Z,4.61
2023-02-12T13:34:22.089Z,4.70
2023-02-12T13:50:37.672Z,4.65
2023-02-12T13:53:40.148Z,4.72
2023-02-12T13:56:31.605Z,4.65
2023-02-12T14:10:22.641Z,4.52
2023-02-12T14:12:50.073Z,4.59
2023-02-12T14:15:31.251Z,4.51
2023-02-12T14:18:07.560Z,4.42
2023-02-12T14:20:36.373Z,4.35
2023-02-12T14:23:24.168Z,4.30
2023-02-12T14:37:37.793Z,4.17
2023-02-12T14:40:43.277Z,4.19
2023-02-12T14:43:56.258Z,4.05
2023-02-12T14:46:24.838Z,3.94
2023-02-12T14:48:59.586Z,3.87
2023-02-12T14:51:47.092Z,3.77
2023-02-12T14:54:19.304Z,3.70
2023-02-12T14:56:49.085Z,3.64
2023-02-12T14:59:21.475Z,3.57
2023-02-12T15:01:51.421Z,3.47
2023-02-12T15:04:28.048Z,3.39
2023-02-12T15:07:10.704Z,3.29
2023-02-12T15:10:02.999Z,3.19
2023-02-12T15:12:35.987Z,3.18
2023-02-12T15:15:15.542Z,3.24
2023-02-12T15:17:51.692Z,3.21
2023-02-12T15:20:21.418Z,3.14
2023-02-12T15:22:49.997Z,3.08
2023-02-12T15:25:25.451Z,3.02
2023-02-12T15:28:27.632Z,2.94
2023-02-12T15:30:56.231Z,2.87
2023-02-12T15:33:35.408Z,2.85
2023-02-12T15:36:03.850Z,2.81
2023-02-12T15:38:36.702Z,2.79
2023-02-12T15:41:05.883Z,2.76
2023-02-12T15:43:35.619Z,2.73
2023-02-12T15:46:06.547Z,2.70
2023-02-12T15:48:36.107Z,2.68
2023-02-12T15:51:34.449Z,2.66
2023-02-12T15:54:05.844Z,2.59
2023-02-12T15:56:34.155Z,2.56
2023-02-12T15:59:04.508Z,2.52
2023-02-12T16:01:35.396Z,2.51
2023-02-12T16:04:07.476Z,2.49
2023-02-12T16:06:37.025Z,2.50
2023-02-12T16:09:14.530Z,2.48
2023-02-12T16:11:45.474Z,2.44
2023-02-12T16:14:22.990Z,2.42
2023-02-12T16:16:54.954Z,2.37
2023-02-12T16:19:25.822Z,2.31
2023-02-12T16:22:04.385Z,2.26
2023-02-12T16:24:46.741Z,2.24
2023-02-12T16:27:19.075Z,2.22
2023-02-12T16:29:55.443Z,2.19
2023-02-12T16:32:37.618Z,2.17
2023-02-12T16:35:23.533Z,2.05
2023-02-12T16:37:56.634Z,1.98
2023-02-12T16:40:27.287Z,1.94
2023-02-12T16:42:57.216Z,1.95
2023-02-12T16:45:28.619Z,1.95
2023-02-12T16:48:11.655Z,1.93
2023-02-12T16:50:46.372Z,1.91
2023-02-12T16:53:27.463Z,1.88
2023-02-12T16:55:55.992Z,1.85
2023-02-12T16:58:26.107Z,1.82
2023-02-12T17:00:55.699Z,1.83
2023-02-12T17:03:24.959Z,1.83
2023-02-12T17:05:54.761Z,1.80
2023-02-12T17:08:24.402Z,1.77
2023-02-12T17:10:52.867Z,1.73
2023-02-12T17:13:23.782Z,1.71
2023-02-12T17:15:55.665Z,1.68
2023-02-12T17:18:24.311Z,1.68
2023-02-12T17:20:57.027Z,1.67
2023-02-12T17:23:25.289Z,1.67
2023-02-12T17:25:54.171Z,1.64
2023-02-12T17:28:23.312Z,1.61
2023-02-12T17:30:53.086Z,1.58
2023-02-12T17:33:22.976Z,1.55
2023-02-12T17:35:51.656Z,1.55
2023-02-12T17:38:20.523Z,1.53
2023-02-12T17:40:50.460Z,1.51
2023-02-12T17:43:20.099Z,1.51
2023-02-12T17:45:48.370Z,1.49
2023-02-12T17:48:17.853Z,1.48
2023-02-12T17:50:46.442Z,1.48
2023-02-12T17:53:15.176Z,1.46
2023-02-12T17:55:44.393Z,1.44
2023-02-12T17:58:13.043Z,1.44
2023-02-12T18:00:41.607Z,1.42
2023-02-12T18:03:11.213Z,1.42
2023-02-12T18:05:43.078Z,1.44
2023-02-12T18:08:11.665Z,1.42
2023-02-12T18:10:43.525Z,1.41
2023-02-12T18:13:14.366Z,1.39
2023-02-12T18:15:43.736Z,1.39
2023-02-12T18:18:12.370Z,1.37
2023-02-12T18:20:41.251Z,1.34
2023-02-12T18:23:11.475Z,1.32
2023-02-12T18:25:44.160Z,1.31
2023-02-12T18:28:12.661Z,1.29
2023-02-12T18:30:43.844Z,1.25
2023-02-12T18:33:12.627Z,1.22
2023-02-12T18:35:42.093Z,1.18
2023-02-12T18:38:12.103Z,1.17
2023-02-12T18:40:41.629Z,1.15
2023-02-12T18:43:09.868Z,1.11
2023-02-12T18:45:39.964Z,1.09
2023-02-12T18:48:09.640Z,1.05
2023-02-12T18:50:38.425Z,1.02
2023-02-12T18:53:06.955Z,0.98
2023-02-12T18:55:37.904Z,0.95
2023-02-12T18:58:06.235Z,0.92
2023-02-12T19:00:34.914Z,0.90
2023-02-12T19:03:03.700Z,0.88
2023-02-12T19:05:32.902Z,0.86
2023-02-12T19:08:01.599Z,0.83
2023-02-12T19:10:30.323Z,0.81
2023-02-12T19:12:59.527Z,0.78
2023-02-12T19:15:32.894Z,0.76
2023-02-12T19:18:01.455Z,0.75
2023-02-12T19:20:29.936Z,0.74
2023-02-12T19:22:58.515Z,0.75
2023-02-12T19:25:27.004Z,0.76
2023-02-12T19:27:55.813Z,0.77
2023-02-12T19:30:24.586Z,0.79
2023-02-12T19:32:53.953Z,0.81
2023-02-12T19:35:22.374Z,0.83
2023-02-12T19:37:53.829Z,0.86
2023-02-12T19:40:22.619Z,0.89
2023-02-12T19:42:50.902Z,0.93
2023-02-12T19:45:19.586Z,0.98
2023-02-12T19:47:48.071Z,1.03
2023-02-12T19:50:16.863Z,1.09
2023-02-12T19:52:45.554Z,1.12
2023-02-12T19:55:15.451Z,1.16
2023-02-12T19:57:43.833Z,1.19
2023-02-12T20:00:13.623Z,1.20
2023-02-12T20:02:46.025Z,1.23
2023-02-12T20:05:14.761Z,1.25
2023-02-12T20:07:45.465Z,1.28
2023-02-12T20:10:13.956Z,1.30
2023-02-12T20:12:42.288Z,1.33
2023-02-12T20:15:15.315Z,1.42
2023-02-12T20:17:44.036Z,1.54
2023-02-12T20:20:12.844Z,1.58
2023-02-12T20:22:43.001Z,1.59
2023-02-12T20:25:12.491Z,1.59
2023-02-12T20:27:41.777Z,1.60
2023-02-12T20:30:10.728Z,1.60
2023-02-12T20:32:39.028Z,1.60
2023-02-12T20:35:07.549Z,1.45
2023-02-12T20:37:36.280Z,1.37
2023-02-12T20:40:05.518Z,1.31
2023-02-12T20:42:34.058Z,1.27
2023-02-12T20:45:02.576Z,1.22
2023-02-12T20:47:31.324Z,1.16
2023-02-12T20:50:00.362Z,1.12
2023-02-12T20:52:28.917Z,1.07
2023-02-12T20:54:58.124Z,1.02
2023-02-12T20:57:26.709Z,0.99
2023-02-12T20:59:55.598Z,0.97
2023-02-12T21:02:23.872Z,0.95
2023-02-12T21:04:52.461Z,0.94
2023-02-12T21:07:22.374Z,0.91
2023-02-12T21:09:50.652Z,0.89
2023-02-12T21:12:20.473Z,0.86
2023-02-12T21:14:49.461Z,0.82
2023-02-12T21:17:20.766Z,0.78
2023-02-12T21:19:48.968Z,0.76
2023-02-12T21:22:17.987Z,0.72
2023-02-12T21:24:46.467Z,0.68
2023-02-12T21:27:14.948Z,0.65
2023-02-12T21:29:43.357Z,0.63
2023-02-12T21:32:12.882Z,0.62
2023-02-12T21:34:42.138Z,0.61
2023-02-12T21:37:10.725Z,0.63
2023-02-12T21:39:40.036Z,0.63
2023-02-12T21:42:08.517Z,0.65
2023-02-12T21:44:39.131Z,0.68
2023-02-12T21:47:08.978Z,0.70
2023-02-12T21:49:37.158Z,0.72
2023-02-12T21:52:06.943Z,0.75
2023-02-12T21:54:35.648Z,0.78
2023-02-12T21:57:04.125Z,0.79
2023-02-12T21:59:32.719Z,0.80
2023-02-12T22:02:02.425Z,0.81
2023-02-12T22:04:33.664Z,0.83
2023-02-12T22:07:03.767Z,0.85
2023-02-12T22:09:35.545Z,0.86
2023-02-12T22:12:05.192Z,0.87
2023-02-12T22:14:34.377Z,0.88
2023-02-12T22:17:05.088Z,0.87
2023-02-12T22:19:35.012Z,0.85
2023-02-12T22:22:03.798Z,0.81
2023-02-12T22:24:32.809Z,0.79
2023-02-12T22:27:01.010Z,0.76
2023-02-12T22:29:29.723Z,0.73
2023-02-12T22:31:58.001Z,0.70
2023-02-12T22:34:26.313Z,0.68
2023-02-12T22:36:54.701Z,0.66
2023-02-12T22:39:23.280Z,0.64
2023-02-12T22:41:51.760Z,0.64
2023-02-12T22:44:21.285Z,0.62
2023-02-12T22:46:50.567Z,0.62
2023-02-12T22:49:19.574Z,0.61
2023-02-12T22:51:47.950Z,0.60
2023-02-12T22:54:17.647Z,0.58
2023-02-12T22:56:45.952Z,0.56
2023-02-12T22:59:14.273Z,0.52
2023-02-12T23:01:45.368Z,0.48
2023-02-12T23:04:17.994Z,0.42
2023-02-12T23:06:46.642Z,0.34
2023-02-12T23:09:17.907Z,0.28
2023-02-12T23:11:46.974Z,0.23
2023-02-12T23:14:17.784Z,0.17
2023-02-12T23:16:46.666Z,0.11
2023-02-12T23:19:15.163Z,0.04
2023-02-12T23:21:43.821Z,-0.02
2023-02-12T23:24:14.136Z,-0.08
2023-02-12T23:26:42.604Z,-0.14
2023-02-12T23:29:11.170Z,-0.19
2023-02-12T23:31:41.629Z,-0.23
2023-02-12T23:34:10.733Z,-0.26
2023-02-12T23:36:39.449Z,-0.27
2023-02-12T23:39:09.783Z,-0.28
2023-02-12T23:41:40.811Z,-0.31
2023-02-12T23:44:09.757Z,-0.32
2023-02-12T23:46:38.169Z,-0.32
2023-02-12T23:49:06.754Z,-0.32
2023-02-12T23:51:35.260Z,-0.32
2023-02-12T23:54:03.929Z,-0.33
2023-02-12T23:56:32.316Z,-0.34
2023-02-12T23:59:01.815Z,-0.34
